Time;durP1;ratioP1;P1;durP2;ratioP2;P2;SDS_P1;SDS_P2;PMS_P1;PMS_P2;Temp;Humidity;BMP_temperature;BMP_pressure;BME280_temperature;BME280_humidity;BME280_pressure;Samples;Min_cycle;Max_cycle;Signal;HPM_P1;HPM_P2
2021/01/23 00:01:22;;;;;;;6.10;2.03;;;;;;;13.65;60.10;99308.97;5098954;28;20031;-78
2021/01/23 00:03:47;;;;;;;8.02;2.38;;;;;;;13.62;59.43;99285.41;5116923;28;20028;-78
2021/01/23 00:06:13;;;;;;;9.60;2.60;;;;;;;13.62;59.28;99261.03;5113399;28;20017;-79
2021/01/23 00:08:39;;;;;;;6.18;2.00;;;;;;;13.70;59.14;99272.22;5107771;28;20035;-77
2021/01/23 00:11:04;;;;;;;5.15;1.73;;;;;;;13.70;58.69;99277.78;5106091;28;20023;-77
2021/01/23 00:13:30;;;;;;;7.10;1.50;;;;;;;13.74;57.82;99256.19;5107968;28;20053;-77
2021/01/23 00:15:59;;;;;;;5.43;1.77;;;;;;;13.79;56.58;99264.16;5106982;28;20020;-78
2021/01/23 00:18:24;;;;;;;6.68;1.92;;;;;;;13.86;56.35;99270.53;5106869;28;20035;-77
2021/01/23 00:20:50;;;;;;;9.00;1.98;;;;;;;13.99;55.51;99262.47;5105037;28;20035;-78
2021/01/23 00:23:16;;;;;;;6.03;1.65;;;;;;;13.97;55.48;99264.88;5104930;28;20055;-78
2021/01/23 00:25:42;;;;;;;7.45;1.70;;;;;;;13.99;56.47;99261.66;5106305;28;20103;-78
2021/01/23 00:28:10;;;;;;;5.63;1.85;;;;;;;13.96;56.40;99256.91;5106575;28;20030;-78
2021/01/23 00:30:36;;;;;;;4.95;1.65;;;;;;;13.92;56.85;99268.09;5103863;28;20099;-78
2021/01/23 00:33:02;;;;;;;8.85;1.65;;;;;;;13.95;56.94;99267.25;5102881;28;20486;-78
2021/01/23 00:35:27;;;;;;;5.93;1.95;;;;;;;13.93;56.65;99255.69;5099717;28;20496;-78
2021/01/23 00:37:53;;;;;;;11.73;3.17;;;;;;;13.85;57.35;99257.75;5101204;28;20031;-78
2021/01/23 00:40:27;;;;;;;7.78;1.75;;;;;;;13.88;58.33;99258.94;5100801;28;20035;-79
2021/01/23 00:42:56;;;;;;;4.57;2.05;;;;;;;13.79;58.17;99242.59;5101363;28;20116;-78
2021/01/23 00:45:21;;;;;;;9.15;3.15;;;;;;;13.77;58.71;99244.22;5119074;28;20462;-78
2021/01/23 00:47:47;;;;;;;7.75;2.28;;;;;;;13.77;59.15;99241.41;5098650;28;20031;-78
2021/01/23 00:50:13;;;;;;;11.93;2.70;;;;;;;13.72;59.95;99234.25;5100902;28;20031;-78
2021/01/23 00:52:38;;;;;;;4.32;2.25;;;;;;;13.73;60.45;99223.84;5100717;28;20031;-78
2021/01/23 00:55:04;;;;;;;11.88;2.67;;;;;;;13.70;60.65;99233.06;5098356;28;20043;-78
2021/01/23 00:57:30;;;;;;;7.35;2.15;;;;;;;13.65;61.31;99203.53;5097819;28;20062;-79
2021/01/23 00:59:56;;;;;;;6.40;2.47;;;;;;;13.69;60.77;99206.28;5103377;28;20449;-78
2021/01/23 01:02:21;;;;;;;10.88;2.00;;;;;;;13.73;61.08;99198.69;5103174;28;20490;-78
2021/01/23 01:04:49;;;;;;;5.97;2.05;;;;;;;13.75;60.58;99193.50;5102689;28;20493;-78
2021/01/23 01:07:15;;;;;;;4.63;1.65;;;;;;;13.76;60.23;99220.25;5123332;28;20028;-78
2021/01/23 01:09:41;;;;;;;8.13;2.85;;;;;;;13.77;60.16;99219.84;5104019;28;20463;-78
2021/01/23 01:12:07;;;;;;;6.65;1.75;;;;;;;13.72;61.33;99214.69;5106770;28;20035;-79
2021/01/23 01:14:35;;;;;;;8.75;2.22;;;;;;;13.69;62.44;99234.25;5104866;28;20032;-77
2021/01/23 01:17:01;;;;;;;7.93;2.40;;;;;;;13.69;62.50;99223.06;5109456;28;20389;-78
2021/01/23 01:19:26;;;;;;;7.28;2.13;;;;;;;13.66;62.34;99215.50;5110879;28;20032;-78
2021/01/23 01:21:52;;;;;;;9.57;2.08;;;;;;;13.61;63.72;99225.91;5109472;28;20091;-78
2021/01/23 01:24:20;;;;;;;8.25;1.80;;;;;;;13.62;63.83;99232.28;5112501;28;20028;-78
2021/01/23 01:26:49;;;;;;;5.10;1.80;;;;;;;13.65;64.11;99219.50;5111998;28;20386;-78
2021/01/23 01:29:17;;;;;;;11.63;2.13;;;;;;;13.56;63.48;99222.75;5113970;28;20062;-77
2021/01/23 01:31:43;;;;;;;8.48;2.30;;;;;;;13.58;64.09;99226.75;5112464;28;20031;-77
2021/01/23 01:34:11;;;;;;;10.27;2.67;;;;;;;13.58;64.37;99218.34;5110876;28;20023;-78
2021/01/23 01:36:42;;;;;;;13.02;2.58;;;;;;;13.56;64.69;99226.31;5112260;28;20040;-78
2021/01/23 01:39:11;;;;;;;9.60;2.38;;;;;;;13.45;64.68;99189.25;5111970;28;20024;-78
2021/01/23 01:41:38;;;;;;;10.95;3.00;;;;;;;13.60;64.90;99201.97;5112116;28;20027;-78
2021/01/23 01:44:08;;;;;;;9.38;2.47;;;;;;;13.55;65.47;99202.38;5111324;28;20027;-78
2021/01/23 01:46:35;;;;;;;5.32;2.15;;;;;;;13.55;66.35;99199.59;5106723;28;20036;-78
2021/01/23 01:49:01;;;;;;;12.40;2.38;;;;;;;13.48;67.04;99194.03;5112250;28;20076;-78
2021/01/23 01:51:30;;;;;;;12.35;2.67;;;;;;;13.40;67.89;99191.69;5112207;28;20035;-78
2021/01/23 01:53:59;;;;;;;11.48;3.15;;;;;;;13.43;68.35;99180.50;5112718;28;20055;-79
2021/01/23 01:56:25;;;;;;;12.85;2.50;;;;;;;13.44;68.36;99186.88;5110657;28;20027;-77
2021/01/23 01:58:50;;;;;;;12.52;2.67;;;;;;;13.32;68.85;99196.50;5107530;28;20474;-78
2021/01/23 02:01:21;;;;;;;13.55;3.60;;;;;;;13.43;69.19;99202.84;5122769;28;20032;-78
2021/01/23 02:04:02;;;;;;;11.52;2.95;;;;;;;13.14;69.75;99146.25;5103922;28;20063;-78
2021/01/23 02:06:35;;;;;;;13.00;3.13;;;;;;;13.38;69.47;99183.72;5105240;28;20057;-78
2021/01/23 02:09:33;;;;;;;13.55;2.08;;;;;;;13.32;70.11;99179.75;5106487;28;20060;-77
2021/01/23 02:12:34;;;;;;;19.73;2.90;;;;;;;13.32;69.92;99186.13;5066209;28;20036;-77
2021/01/23 02:15:07;;;;;;;14.23;3.08;;;;;;;13.37;70.24;99193.31;5107314;28;20028;-78
2021/01/23 02:17:58;;;;;;;13.15;3.10;;;;;;;13.36;70.14;99172.91;5106804;28;20023;-78
2021/01/23 02:21:15;;;;;;;12.77;2.83;;;;;;;13.34;70.52;99188.50;5105899;28;20031;-78
2021/01/23 02:23:47;;;;;;;12.10;2.97;;;;;;;13.32;71.36;99163.78;5108346;28;20038;-78
2021/01/23 02:26:29;;;;;;;15.50;2.63;;;;;;;13.26;71.34;99148.66;5107448;28;20055;-79
2021/01/23 02:29:07;;;;;;;18.40;2.92;;;;;;;13.25;71.03;99135.88;5109079;28;20024;-78
2021/01/23 02:31:47;;;;;;;15.63;2.95;;;;;;;13.26;70.80;99148.66;5106470;28;20031;-78
2021/01/23 02:34:20;;;;;;;6.55;2.63;;;;;;;13.29;70.75;99135.84;5106681;28;20106;-78
2021/01/23 02:36:47;;;;;;;14.38;3.05;;;;;;;13.29;70.00;99119.09;5108350;28;20035;-77
2021/01/23 02:39:16;;;;;;;11.85;3.75;;;;;;;13.33;69.93;99114.28;5107232;28;20037;-78
2021/01/23 02:41:46;;;;;;;21.10;5.80;;;;;;;13.36;69.14;99131.00;5108341;28;20116;-78
2021/01/23 02:44:12;;;;;;;9.05;3.15;;;;;;;13.35;68.98;99126.63;5108062;28;20059;-77
2021/01/23 02:46:41;;;;;;;11.93;2.88;;;;;;;13.35;70.01;99123.84;5106518;28;20067;-77
2021/01/23 02:49:07;;;;;;;16.63;4.93;;;;;;;13.36;69.87;99135.81;5107591;28;20027;-77
2021/01/23 02:51:41;;;;;;;15.88;4.13;;;;;;;13.32;70.90;99118.28;5106708;28;20039;-78
2021/01/23 02:54:15;;;;;;;9.82;2.67;;;;;;;13.42;71.32;99134.19;5105483;28;20077;-77
2021/01/23 02:56:44;;;;;;;;;;;;;;;13.42;71.75;99142.56;5108310;28;20023;-77
2021/01/23 02:59:16;;;;;;;16.83;3.25;;;;;;;13.40;72.31;99144.97;5108280;28;19973;-78
2021/01/23 03:01:43;;;;;;;25.35;4.75;;;;;;;13.43;73.32;99152.56;5107674;28;20042;-78
2021/01/23 03:04:10;;;;;;;10.52;3.22;;;;;;;13.41;73.87;99143.75;5109015;28;20034;-78
2021/01/23 03:06:37;;;;;;;17.33;4.53;;;;;;;13.41;74.14;99140.97;5108419;28;20028;-78
2021/01/23 03:09:23;;;;;;;18.02;4.70;;;;;;;13.34;73.92;99153.00;5109158;28;20035;-78
2021/01/23 03:11:50;;;;;;;11.30;3.20;;;;;;;13.31;74.68;99139.81;5092963;28;20035;-78
2021/01/23 03:14:20;;;;;;;17.58;4.55;;;;;;;13.32;73.92;99137.84;5112234;28;20373;-79
2021/01/23 03:16:54;;;;;;;16.30;4.32;;;;;;;13.29;73.43;99136.66;5111663;28;20036;-79
2021/01/23 03:19:22;;;;;;;;;;;;;;;13.26;71.40;99153.41;5110332;28;20091;-79
2021/01/23 03:21:49;;;;;;;12.00;2.63;;;;;;;13.26;67.57;99147.81;5106922;28;20022;-78
2021/01/23 03:24:19;;;;;;;10.68;3.63;;;;;;;13.27;64.99;99152.25;5112944;28;20036;-78
2021/01/23 03:26:45;;;;;;;12.02;3.10;;;;;;;13.23;65.28;99151.44;5109819;28;20019;-78
2021/01/23 03:29:14;;;;;;;15.82;4.05;;;;;;;13.17;65.47;99127.91;5107180;28;20054;-78
2021/01/23 03:31:39;;;;;;;8.13;2.65;;;;;;;13.22;65.72;99141.47;5106770;28;20030;-76
2021/01/23 03:34:08;;;;;;;11.80;3.20;;;;;;;13.15;67.64;99142.25;5106544;28;20029;-78
2021/01/23 03:36:34;;;;;;;14.13;3.03;;;;;;;13.13;68.44;99149.47;5105715;28;20036;-78
2021/01/23 03:39:02;;;;;;;17.70;3.70;;;;;;;13.14;69.07;99142.66;5105307;28;20107;-78
2021/01/23 03:41:31;;;;;;;10.93;2.58;;;;;;;13.10;71.18;99151.06;5126633;28;20028;-79
2021/01/23 03:43:57;;;;;;;16.20;4.20;;;;;;;13.08;71.70;99159.84;5108227;28;20059;-78
2021/01/23 03:46:26;;;;;;;18.27;4.03;;;;;;;13.16;72.17;99137.50;5107117;28;20583;-78
2021/01/23 03:48:51;;;;;;;17.05;5.18;;;;;;;13.14;72.22;99137.09;5106784;28;20038;-78
2021/01/23 03:51:20;;;;;;;18.60;4.35;;;;;;;13.14;71.90;99121.13;5125562;28;20035;-78
2021/01/23 03:53:46;;;;;;;17.58;4.20;;;;;;;13.13;71.72;99104.78;5104886;28;20485;-78
2021/01/23 03:56:12;;;;;;;17.00;3.83;;;;;;;13.10;71.50;99096.03;5107481;28;20101;-78
2021/01/23 03:58:37;;;;;;;10.75;3.22;;;;;;;13.04;71.57;99100.41;5108085;28;20053;-76
2021/01/23 04:01:06;;;;;;;17.90;5.03;;;;;;;13.03;71.81;99103.63;5107671;28;20035;-78
2021/01/23 04:03:34;;;;;;;20.15;4.28;;;;;;;12.99;71.52;99112.00;5101176;28;20088;-78
2021/01/23 04:06:03;;;;;;;21.17;4.30;;;;;;;12.94;72.44;99098.47;5107478;28;20091;-78
2021/01/23 04:08:30;;;;;;;20.17;3.65;;;;;;;12.96;72.79;99100.88;5124400;28;20474;-78
2021/01/23 04:10:59;;;;;;;19.80;3.85;;;;;;;12.96;72.42;99079.31;5107169;28;20099;-78
2021/01/23 04:13:25;;;;;;;17.52;4.72;;;;;;;12.91;72.94;99088.13;5107021;28;20454;-77
2021/01/23 04:15:53;;;;;;;22.67;5.00;;;;;;;12.85;73.05;99067.41;5107872;28;20023;-78
2021/01/23 04:18:19;;;;;;;17.60;3.95;;;;;;;12.87;73.20;99044.66;5107909;28;20028;-78
2021/01/23 04:20:49;;;;;;;15.98;3.92;;;;;;;12.84;73.65;99057.44;5107294;28;20059;-77
2021/01/23 04:23:15;;;;;;;20.67;6.32;;;;;;;12.82;73.61;99038.28;5107100;28;20032;-77
2021/01/23 04:25:40;;;;;;;31.83;6.47;;;;;;;12.81;74.34;99039.50;5107016;28;20373;-77
2021/01/23 04:28:09;;;;;;;26.25;5.43;;;;;;;12.80;74.48;99054.66;5106938;28;20098;-78
2021/01/23 04:30:34;;;;;;;22.55;4.63;;;;;;;12.83;75.21;99089.34;5108444;28;20031;-78
2021/01/23 04:33:00;;;;;;;7.30;2.28;;;;;;;12.38;62.00;99122.56;5108361;28;20023;-78
2021/01/23 04:35:28;;;;;;;10.20;2.17;;;;;;;11.55;67.06;99109.75;5106323;28;20027;-77
2021/01/23 04:37:57;;;;;;;12.43;3.25;;;;;;;11.13;69.87;99122.38;5107267;28;20023;-78
2021/01/23 04:40:23;;;;;;;12.85;3.08;;;;;;;10.91;72.07;99126.25;5107622;28;20028;-77
2021/01/23 04:42:49;;;;;;;11.98;2.28;;;;;;;10.80;72.87;99101.16;5104595;28;20043;-77
2021/01/23 04:45:15;;;;;;;12.55;2.22;;;;;;;10.68;72.62;99112.63;5089047;28;20031;-77
2021/01/23 04:47:41;;;;;;;16.15;2.80;;;;;;;10.70;73.64;99115.81;5106647;28;20028;-78
2021/01/23 04:50:09;;;;;;;12.35;3.65;;;;;;;10.66;74.33;99121.38;5108334;28;20034;-78
2021/01/23 04:52:39;;;;;;;8.85;3.45;;;;;;;10.56;75.23;99135.22;5110015;28;20027;-78
2021/01/23 04:55:07;;;;;;;8.68;2.13;;;;;;;10.54;75.82;99141.16;5110178;28;20051;-79
2021/01/23 04:57:36;;;;;;;9.65;2.25;;;;;;;10.52;76.15;99148.31;5109129;28;20028;-77
2021/01/23 05:00:07;;;;;;;17.02;3.20;;;;;;;10.49;77.07;99150.69;5106104;28;20040;-77
2021/01/23 05:02:36;;;;;;;12.90;3.08;;;;;;;10.54;77.44;99143.13;5124955;28;20051;-78
2021/01/23 05:05:04;;;;;;;18.95;5.90;;;;;;;10.55;77.63;99150.31;5106759;28;20031;-78
2021/01/23 05:07:40;;;;;;;19.23;4.32;;;;;;;10.62;77.09;99147.56;5105091;28;20031;-78
2021/01/23 05:10:19;;;;;;;17.88;4.13;;;;;;;10.53;76.87;99155.47;5104974;28;20057;-77
2021/01/23 05:12:46;;;;;;;5.93;2.78;;;;;;;10.64;76.71;99157.13;5103888;28;20055;-77
2021/01/23 05:15:29;;;;;;;13.20;3.47;;;;;;;10.60;74.41;99158.28;5106680;28;20496;-78
2021/01/23 05:17:57;;;;;;;9.90;2.13;;;;;;;10.71;72.83;99167.50;5104850;28;20031;-78
2021/01/23 05:20:58;;;;;;;7.20;2.03;;;;;;;10.88;71.25;99172.38;5104269;28;20035;-78
2021/01/23 05:23:27;;;;;;;7.80;2.15;;;;;;;11.12;70.83;99178.44;5052019;28;20099;-78
2021/01/23 05:25:58;;;;;;;9.73;1.80;;;;;;;11.07;70.25;99178.81;5104525;28;20031;-78
2021/01/23 05:28:28;;;;;;;6.05;1.50;;;;;;;11.09;70.54;99177.25;5104369;28;20034;-77
2021/01/23 05:30:55;;;;;;;4.82;1.42;;;;;;;11.16;70.84;99185.63;5105607;28;20055;-78
2021/01/23 05:33:39;;;;;;;7.32;1.60;;;;;;;11.10;70.86;99191.97;5125007;28;20032;-78
2021/01/23 05:36:07;;;;;;;5.80;1.50;;;;;;;11.11;70.63;99191.56;5106875;28;20059;-78
2021/01/23 05:38:44;;;;;;;13.68;2.53;;;;;;;11.06;70.94;99182.78;5105239;28;20042;-78
2021/01/23 05:41:11;;;;;;;5.45;1.83;;;;;;;11.05;71.19;99189.56;5104546;28;20084;-77
2021/01/23 05:43:45;;;;;;;7.30;1.60;;;;;;;11.00;71.02;99183.16;5105285;28;20031;-78
2021/01/23 05:46:15;;;;;;;7.30;1.55;;;;;;;11.00;70.68;99176.78;5104768;28;20082;-77
2021/01/23 05:48:46;;;;;;;8.35;1.98;;;;;;;11.11;69.70;99180.44;5100979;28;20054;-77
2021/01/23 05:51:14;;;;;;;11.98;1.60;;;;;;;11.10;70.29;99181.63;5104552;28;20496;-77
2021/01/23 05:53:40;;;;;;;8.30;2.25;;;;;;;11.22;69.06;99177.69;5104417;28;20028;-77
2021/01/23 05:56:06;;;;;;;11.30;2.60;;;;;;;11.22;69.99;99177.69;5106976;28;20049;-77
2021/01/23 05:58:43;;;;;;;12.80;3.03;;;;;;;11.19;70.70;99182.06;5105804;28;20020;-77
2021/01/23 06:01:20;;;;;;;7.05;2.40;;;;;;;11.11;70.21;99174.06;5106046;28;20133;-78
2021/01/23 06:03:51;;;;;;;8.18;2.63;;;;;;;11.09;70.89;99176.47;5109039;28;20024;-77
2021/01/23 06:06:19;;;;;;;8.85;3.53;;;;;;;11.08;70.64;99185.97;5107281;28;20035;-77
2021/01/23 06:08:52;;;;;;;9.77;2.45;;;;;;;11.04;69.76;99182.41;5108043;28;20023;-77
2021/01/23 06:11:18;;;;;;;7.43;2.20;;;;;;;11.01;69.95;99179.19;5108379;28;20032;-78
2021/01/23 06:13:48;;;;;;;7.95;2.05;;;;;;;11.01;70.94;99170.84;5107477;28;20031;-77
2021/01/23 06:16:32;;;;;;;6.90;1.85;;;;;;;10.92;70.81;99173.19;5106878;28;20026;-77
2021/01/23 06:19:16;;;;;;;;;;;;;;;10.87;71.40;99165.22;5108356;28;20023;-78
2021/01/23 06:21:45;;;;;;;9.20;2.83;;;;;;;10.86;72.20;99162.81;5106918;28;19908;-78
2021/01/23 06:24:14;;;;;;;13.35;3.30;;;;;;;10.87;73.71;99165.22;5108458;28;20326;-78
2021/01/23 06:26:52;;;;;;;8.38;2.97;;;;;;;10.85;73.53;99162.00;5106517;28;20046;-78
2021/01/23 06:29:41;;;;;;;9.15;3.28;;;;;;;10.82;73.74;99165.59;5106676;28;20019;-77
2021/01/23 06:32:16;;;;;;;10.43;3.30;;;;;;;10.82;74.04;99173.94;5123330;28;20466;-77
2021/01/23 06:34:52;;;;;;;6.13;3.53;;;;;;;10.79;73.77;99183.03;5104842;28;20027;-77
2021/01/23 06:37:25;;;;;;;9.77;3.30;;;;;;;10.80;72.67;99181.06;5107337;28;20375;-78
2021/01/23 06:40:10;;;;;;;8.68;5.00;;;;;;;10.80;73.45;99187.41;5107984;28;20039;-78
2021/01/23 06:42:38;;;;;;;5.97;4.38;;;;;;;10.80;73.46;99179.06;5109515;28;20024;-78
2021/01/23 06:45:20;;;;;;;10.32;4.65;;;;;;;10.82;73.84;99179.50;5109207;28;20040;-78
2021/01/23 06:47:54;;;;;;;11.93;5.60;;;;;;;10.83;73.58;99178.31;5109875;28;20039;-78
2021/01/23 06:50:30;;;;;;;9.38;6.35;;;;;;;10.83;73.68;99171.94;5109104;28;20088;-77
2021/01/23 06:52:55;;;;;;;11.27;7.65;;;;;;;10.83;73.26;99169.97;5110276;28;20061;-78
2021/01/23 06:55:44;;;;;;;15.15;7.60;;;;;;;10.85;73.32;99164.78;5109447;28;20055;-78
2021/01/23 06:58:35;;;;;;;19.45;8.77;;;;;;;10.85;73.79;99173.13;5108382;28;20020;-77
2021/01/23 07:01:01;;;;;;;17.35;9.68;;;;;;;10.85;73.71;99162.00;5094553;28;20050;-78
2021/01/23 07:03:28;;;;;;;17.58;9.73;;;;;;;10.92;73.20;99167.63;5109457;28;20524;-78
2021/01/23 07:06:00;;;;;;;16.38;9.07;;;;;;;10.86;72.23;99168.38;5109744;28;20028;-78
2021/01/23 07:08:39;;;;;;;17.80;9.07;;;;;;;10.87;72.32;99164.41;5112835;28;20028;-78
2021/01/23 07:11:17;;;;;;;13.40;8.75;;;;;;;10.89;72.08;99146.13;5112005;28;20035;-78
2021/01/23 07:14:08;;;;;;;24.48;9.40;;;;;;;10.87;71.58;99147.72;5109104;28;20517;-78
2021/01/23 07:16:52;;;;;;;14.82;7.53;;;;;;;10.88;69.79;99150.09;5110115;28;20027;-78
2021/01/23 07:19:18;;;;;;;17.35;9.77;;;;;;;10.90;70.52;99142.16;5109214;28;20500;-78
2021/01/23 07:21:45;;;;;;;21.33;9.85;;;;;;;10.92;69.31;99144.53;5108970;28;20114;-78
2021/01/23 07:24:11;;;;;;;14.05;7.47;;;;;;;11.00;70.11;99148.97;5109746;28;20458;-78
2021/01/23 07:26:37;;;;;;;12.70;6.55;;;;;;;11.14;70.68;99146.25;5113289;28;20028;-80
2021/01/23 07:31:35;;;;;;;13.85;5.97;;;;;;;11.52;67.94;99142.00;5048484;28;20049;-79
2021/01/23 07:34:08;;;;;;;11.80;5.70;;;;;;;11.68;68.16;99136.06;5026182;28;20091;-78
2021/01/23 07:36:42;;;;;;;17.35;5.85;;;;;;;11.71;68.29;99140.81;5013123;28;20104;-76
2021/01/23 07:39:12;;;;;;;19.80;7.50;;;;;;;11.66;68.06;99138.41;5005557;28;20037;-78
2021/01/23 07:41:57;;;;;;;13.38;6.18;;;;;;;11.72;67.14;99133.28;5006652;28;20033;-78
2021/01/23 07:44:27;;;;;;;11.43;6.38;;;;;;;12.03;65.76;99129.72;5010453;28;20045;-78
2021/01/23 07:46:53;;;;;;;8.07;3.70;;;;;;;12.79;60.71;99141.59;5012294;28;20108;-78
2021/01/23 07:49:21;;;;;;;12.27;4.15;;;;;;;13.63;59.74;99136.88;5012090;28;20504;-77
2021/01/23 07:51:47;;;;;;;10.02;2.97;;;;;;;13.44;57.94;99125.41;5011522;28;20026;-78
2021/01/23 07:54:14;;;;;;;8.32;3.17;;;;;;;13.68;57.46;99121.66;5009811;28;20029;-79
2021/01/23 07:56:54;;;;;;;6.15;2.30;;;;;;;13.62;54.96;99104.50;5008907;28;20026;-78
2021/01/23 07:59:21;;;;;;;5.03;1.98;;;;;;;13.73;54.71;99095.25;5006040;28;20022;-77
2021/01/23 08:01:47;;;;;;;5.97;1.73;;;;;;;13.78;53.63;99083.66;5004969;28;20025;-78
2021/01/23 08:04:29;;;;;;;10.85;2.67;;;;;;;13.84;52.07;99088.38;5005570;28;20451;-78
2021/01/23 08:07:17;;;;;;;10.13;2.85;;;;;;;13.84;53.17;99076.41;5006164;28;20018;-78
2021/01/23 08:09:43;;;;;;;7.45;3.35;;;;;;;13.66;54.75;99075.75;5007587;28;20076;-77
2021/01/23 08:12:19;;;;;;;6.05;2.35;;;;;;;13.80;54.51;99070.84;5008355;28;20033;-79
2021/01/23 08:14:55;;;;;;;6.93;2.20;;;;;;;13.71;54.84;99061.34;5008506;28;20032;-79
2021/01/23 08:17:46;;;;;;;8.98;2.67;;;;;;;13.42;56.03;99072.72;5006441;28;20021;-78
2021/01/23 08:20:16;;;;;;;4.95;1.83;;;;;;;13.29;57.06;99082.78;5006385;28;20021;-78
2021/01/23 08:23:09;;;;;;;5.78;2.25;;;;;;;13.07;57.48;99082.88;5003330;28;20026;-79
2021/01/23 08:25:55;;;;;;;6.85;4.97;;;;;;;12.85;58.34;99075.78;5006026;28;20022;-79
2021/01/23 08:28:35;;;;;;;5.75;3.30;;;;;;;12.78;59.03;99090.56;5011251;28;20025;-78
2021/01/23 08:31:30;;;;;;;5.75;2.75;;;;;;;12.46;59.54;99090.63;4985826;28;20042;-78
2021/01/23 08:33:57;;;;;;;8.63;2.92;;;;;;;12.23;59.89;99093.06;4969500;28;20039;-78
2021/01/23 08:36:28;;;;;;;8.13;3.60;;;;;;;12.00;63.12;99107.44;4982998;28;20037;-77
2021/01/23 08:39:05;;;;;;;6.90;2.75;;;;;;;11.80;64.91;99110.59;4981933;28;20451;-75
2021/01/23 08:41:32;;;;;;;9.13;2.80;;;;;;;11.56;69.34;99125.28;4980025;28;20448;-75
2021/01/23 08:43:59;;;;;;;10.88;3.90;;;;;;;11.36;70.79;99133.19;4978424;28;20170;-76
2021/01/23 08:46:25;;;;;;;9.88;3.00;;;;;;;11.27;70.46;99152.25;4977729;28;20058;-76
2021/01/23 08:48:51;;;;;;;9.40;3.05;;;;;;;10.98;71.30;99154.94;4978387;28;20034;-75
2021/01/23 08:51:17;;;;;;;2.60;1.38;;;;;;;10.66;69.41;99153.97;4978486;28;20073;-76
2021/01/23 08:53:42;;;;;;;2.42;1.05;;;;;;;10.45;67.74;99151.84;4959586;28;20068;-75
2021/01/23 08:56:11;;;;;;;5.78;2.05;;;;;;;10.39;67.78;99162.53;4977110;28;20073;-76
2021/01/23 08:58:37;;;;;;;4.35;1.90;;;;;;;10.33;68.78;99155.72;4980308;28;20478;-77
2021/01/23 09:01:03;;;;;;;3.95;2.30;;;;;;;10.27;69.05;99157.25;4978221;28;20050;-76
2021/01/23 09:03:29;;;;;;;2.83;2.58;;;;;;;10.25;70.47;99131.84;4977018;28;20030;-75
2021/01/23 09:05:54;;;;;;;3.83;2.30;;;;;;;10.36;70.25;99124.38;4981774;28;20019;-77
2021/01/23 09:08:20;;;;;;;6.18;3.47;;;;;;;10.54;71.03;99140.34;4986092;28;20085;-77
2021/01/23 09:10:46;;;;;;;10.55;4.55;;;;;;;10.58;70.23;99133.63;4983523;28;20030;-76
2021/01/23 09:13:13;;;;;;;7.40;4.05;;;;;;;10.52;70.80;99126.06;4980073;28;20019;-75
2021/01/23 09:15:39;;;;;;;13.32;3.05;;;;;;;10.46;71.42;99128.41;4985831;28;20371;-76
2021/01/23 09:18:05;;;;;;;8.40;3.67;;;;;;;10.46;72.00;99140.31;4987359;28;20102;-76
2021/01/23 09:20:34;;;;;;;11.60;3.40;;;;;;;10.55;72.32;99141.97;4985954;28;20022;-77
2021/01/23 09:23:00;;;;;;;6.05;3.17;;;;;;;10.91;71.56;99138.19;4986830;28;20018;-76
2021/01/23 09:25:25;;;;;;;7.22;3.15;;;;;;;11.00;72.53;99135.06;4988216;28;20026;-76
2021/01/23 09:27:51;;;;;;;6.82;3.42;;;;;;;11.08;71.61;99135.88;4987990;28;20030;-78
2021/01/23 09:30:17;;;;;;;5.25;2.92;;;;;;;10.99;70.76;99139.81;4986369;28;20053;-75
2021/01/23 09:32:43;;;;;;;7.88;3.10;;;;;;;10.91;71.75;99140.97;4986786;28;20038;-76
2021/01/23 09:35:10;;;;;;;9.05;5.75;;;;;;;10.84;71.64;99137.34;4986271;28;20026;-78
2021/01/23 09:37:36;;;;;;;5.10;4.25;;;;;;;10.71;72.48;99139.69;4990301;28;20023;-79
2021/01/23 09:40:03;;;;;;;9.23;5.70;;;;;;;10.47;72.59;99138.34;4991569;28;20466;-76
2021/01/23 09:42:29;;;;;;;9.02;4.13;;;;;;;10.54;72.40;99148.69;4992239;28;20038;-76
2021/01/23 09:44:55;;;;;;;12.25;7.22;;;;;;;10.55;73.16;99140.00;4989492;28;20027;-76
2021/01/23 09:47:20;;;;;;;9.90;5.40;;;;;;;10.81;74.31;99143.69;4986388;28;20058;-72
2021/01/23 09:49:46;;;;;;;7.80;5.70;;;;;;;11.71;69.63;99140.03;4977026;28;20548;-72
2021/01/23 09:52:12;;;;;;;13.63;7.93;;;;;;;12.57;66.77;99138.06;4976668;28;20517;-73
2021/01/23 09:54:37;;;;;;;16.75;9.27;;;;;;;12.39;67.94;99140.88;4978445;28;20034;-75
2021/01/23 09:57:03;;;;;;;10.18;5.90;;;;;;;12.63;65.22;99144.03;4979597;28;20074;-70
2021/01/23 09:59:29;;;;;;;11.45;3.90;;;;;;;12.73;64.61;99137.59;4980875;28;20396;-76
2021/01/23 10:01:55;;;;;;;4.70;3.50;;;;;;;12.73;64.34;99138.44;4986432;28;20033;-75
2021/01/23 10:04:21;;;;;;;15.63;4.22;;;;;;;12.55;63.58;99124.50;4985659;28;20050;-76
2021/01/23 10:06:46;;;;;;;8.05;3.88;;;;;;;13.35;61.69;99134.22;4985516;28;20038;-75
2021/01/23 10:09:12;;;;;;;8.60;4.93;;;;;;;13.55;61.10;99142.91;4986453;28;20094;-75
2021/01/23 10:11:38;;;;;;;8.77;4.10;;;;;;;13.52;59.92;99127.72;4985468;28;20027;-76
2021/01/23 10:14:04;;;;;;;10.85;4.70;;;;;;;13.68;60.55;99120.84;4988094;28;20492;-76
2021/01/23 10:16:29;;;;;;;8.00;2.70;;;;;;;13.76;58.38;99114.03;4985065;28;20038;-75
2021/01/23 10:18:55;;;;;;;5.63;2.55;;;;;;;13.72;56.76;99108.44;4985283;28;20061;-76
2021/01/23 10:21:21;;;;;;;7.68;2.58;;;;;;;13.40;56.64;99103.06;4985366;28;20045;-77
2021/01/23 10:23:46;;;;;;;10.05;3.28;;;;;;;13.14;55.40;99107.16;4979889;28;20030;-76
2021/01/23 10:26:12;;;;;;;9.77;2.33;;;;;;;13.66;52.42;99106.50;4980901;28;20454;-77
2021/01/23 10:28:38;;;;;;;8.57;2.60;;;;;;;14.02;51.32;99098.66;4982728;28;20023;-77
2021/01/23 10:31:04;;;;;;;5.30;3.17;;;;;;;14.46;47.70;99100.63;4982558;28;20085;-77
2021/01/23 10:33:29;;;;;;;4.85;2.22;;;;;;;14.60;44.33;99106.13;4983960;28;20043;-78
2021/01/23 10:35:55;;;;;;;6.10;2.45;;;;;;;14.82;44.72;99095.47;4986405;28;20046;-77
2021/01/23 10:38:20;;;;;;;6.72;3.33;;;;;;;15.04;44.54;99107.22;4984476;28;20033;-74
2021/01/23 10:40:49;;;;;;;10.25;3.75;;;;;;;15.27;43.97;99108.53;4985195;28;20023;-76
2021/01/23 10:43:14;;;;;;;12.93;4.07;;;;;;;15.49;43.31;99121.03;4986114;28;20033;-75
2021/01/23 10:45:40;;;;;;;8.15;3.83;;;;;;;15.49;42.88;99109.81;4986756;28;20090;-76
2021/01/23 10:48:07;;;;;;;9.73;2.55;;;;;;;15.25;41.58;99122.16;4987144;28;20035;-76
2021/01/23 10:50:33;;;;;;;7.47;2.95;;;;;;;15.49;41.93;99120.22;4988098;28;20019;-77
2021/01/23 10:52:59;;;;;;;8.98;2.08;;;;;;;14.97;42.67;99118.50;4988315;28;20046;-77
2021/01/23 10:55:24;;;;;;;3.95;1.88;;;;;;;15.05;43.95;99131.19;4987595;28;20031;-76
2021/01/23 10:57:52;;;;;;;7.43;2.53;;;;;;;14.77;43.62;99114.75;4984243;28;20041;-76
2021/01/23 11:00:18;;;;;;;5.35;1.77;;;;;;;15.04;42.66;99124.00;4983450;28;20023;-76
2021/01/23 11:02:43;;;;;;;6.20;2.28;;;;;;;15.20;41.85;99129.81;4983812;28;20027;-74
2021/01/23 11:05:09;;;;;;;9.63;2.42;;;;;;;15.26;42.84;99134.97;4986084;28;20085;-75
2021/01/23 11:07:35;;;;;;;6.85;2.42;;;;;;;15.34;41.69;99142.03;4984801;28;20030;-76
2021/01/23 11:10:01;;;;;;;11.77;2.20;;;;;;;15.17;40.99;99127.84;4985926;28;20043;-75
2021/01/23 11:12:26;;;;;;;5.30;1.85;;;;;;;15.14;41.37;99147.50;4984195;28;20401;-76
2021/01/23 11:14:52;;;;;;;4.90;1.55;;;;;;;15.20;41.16;99157.84;4984161;28;20092;-78
2021/01/23 11:17:18;;;;;;;4.55;1.83;;;;;;;15.05;40.49;99147.22;4984668;28;20084;-77
2021/01/23 11:19:43;;;;;;;10.30;2.03;;;;;;;15.08;41.19;99150.00;4981363;28;20027;-76
2021/01/23 11:22:09;;;;;;;10.23;2.30;;;;;;;14.80;42.68;99148.28;4985358;28;20098;-76
2021/01/23 11:24:39;;;;;;;7.07;1.92;;;;;;;14.59;43.28;99171.69;4985925;28;20019;-76
2021/01/23 11:27:05;;;;;;;14.82;2.55;;;;;;;14.26;44.29;99158.38;4985608;28;20022;-76
2021/01/23 11:29:30;;;;;;;5.57;2.85;;;;;;;14.27;44.92;99157.94;4991513;28;20038;-76
2021/01/23 11:31:56;;;;;;;9.02;2.67;;;;;;;14.22;44.56;99163.19;5008775;28;20018;-76
2021/01/23 11:34:21;;;;;;;9.18;2.38;;;;;;;13.84;46.23;99155.47;5007567;28;20033;-76
2021/01/23 11:36:47;;;;;;;10.15;2.75;;;;;;;13.92;47.00;99167.44;5007103;28;20025;-76
2021/01/23 11:39:13;;;;;;;10.52;3.03;;;;;;;14.27;46.16;99154.38;5007039;28;20029;-76
2021/01/23 11:41:39;;;;;;;9.23;2.17;;;;;;;14.42;45.66;99148.22;5008319;28;20030;-77
2021/01/23 11:44:06;;;;;;;6.93;2.50;;;;;;;14.38;45.46;99157.88;5005907;28;20187;-77